sensor_id;sensor_type;location;lat;lon;timestamp;P1;durP1;ratioP1;P2;durP2;ratioP2
38037;SDS011;23843;51.320;12.340;2023-05-10T00:02:24;3.90;;;2.50;;
38037;SDS011;23843;51.320;12.340;2023-05-10T00:04:51;3.83;;;2.80;;
38037;SDS011;23843;51.320;12.340;2023-05-10T00:07:21;3.33;;;3.00;;
38037;SDS011;23843;51.320;12.340;2023-05-10T00:09:46;3.03;;;2.60;;
38037;SDS011;23843;51.320;12.340;2023-05-10T00:12:12;3.67;;;2.47;;
38037;SDS011;23843;51.320;12.340;2023-05-10T00:14:37;3.30;;;2.40;;
38037;SDS011;23843;51.320;12.340;2023-05-10T00:17:03;2.80;;;2.23;;
38037;SDS011;23843;51.320;12.340;2023-05-10T00:19:28;4.37;;;2.77;;
38037;SDS011;23843;51.320;12.340;2023-05-10T00:21:54;2.80;;;2.20;;
38037;SDS011;23843;51.320;12.340;2023-05-10T00:24:20;2.40;;;2.17;;
38037;SDS011;23843;51.320;12.340;2023-05-10T00:26:46;2.70;;;2.10;;
38037;SDS011;23843;51.320;12.340;2023-05-10T00:29:11;2.10;;;1.90;;
38037;SDS011;23843;51.320;12.340;2023-05-10T00:31:37;2.60;;;2.10;;
38037;SDS011;23843;51.320;12.340;2023-05-10T00:34:02;2.20;;;1.70;;
38037;SDS011;23843;51.320;12.340;2023-05-10T00:36:31;2.03;;;1.73;;
38037;SDS011;23843;51.320;12.340;2023-05-10T00:38:57;3.10;;;1.90;;
38037;SDS011;23843;51.320;12.340;2023-05-10T00:41:25;2.27;;;2.07;;
38037;SDS011;23843;51.320;12.340;2023-05-10T00:43:51;2.20;;;2.00;;
38037;SDS011;23843;51.320;12.340;2023-05-10T00:46:19;1.80;;;1.50;;
38037;SDS011;23843;51.320;12.340;2023-05-10T00:48:47;2.47;;;1.67;;
38037;SDS011;23843;51.320;12.340;2023-05-10T00:51:13;1.77;;;1.67;;
38037;SDS011;23843;51.320;12.340;2023-05-10T00:53:39;1.83;;;1.60;;
38037;SDS011;23843;51.320;12.340;2023-05-10T00:56:05;1.97;;;1.40;;
38037;SDS011;23843;51.320;12.340;2023-05-10T00:58:32;1.63;;;1.40;;
38037;SDS011;23843;51.320;12.340;2023-05-10T01:00:58;1.90;;;1.60;;
38037;SDS011;23843;51.320;12.340;2023-05-10T01:03:24;1.93;;;1.53;;
38037;SDS011;23843;51.320;12.340;2023-05-10T01:05:49;1.83;;;1.50;;
38037;SDS011;23843;51.320;12.340;2023-05-10T01:08:15;1.40;;;1.30;;
38037;SDS011;23843;51.320;12.340;2023-05-10T01:10:40;2.40;;;1.60;;
38037;SDS011;23843;51.320;12.340;2023-05-10T01:13:08;1.60;;;1.50;;
38037;SDS011;23843;51.320;12.340;2023-05-10T01:15:35;2.00;;;1.80;;
38037;SDS011;23843;51.320;12.340;2023-05-10T01:18:04;2.83;;;2.20;;
38037;SDS011;23843;51.320;12.340;2023-05-10T01:20:32;1.77;;;1.60;;
38037;SDS011;23843;51.320;12.340;2023-05-10T01:32:09;1.77;;;1.50;;
38037;SDS011;23843;51.320;12.340;2023-05-10T01:34:48;1.50;;;1.30;;
38037;SDS011;23843;51.320;12.340;2023-05-10T01:37:20;2.33;;;1.53;;
38037;SDS011;23843;51.320;12.340;2023-05-10T01:39:55;2.10;;;1.90;;
38037;SDS011;23843;51.320;12.340;2023-05-10T01:42:29;2.67;;;2.20;;
38037;SDS011;23843;51.320;12.340;2023-05-10T01:45:02;2.10;;;1.80;;
38037;SDS011;23843;51.320;12.340;2023-05-10T01:47:38;1.60;;;1.37;;
38037;SDS011;23843;51.320;12.340;2023-05-10T01:50:15;2.17;;;1.70;;
38037;SDS011;23843;51.320;12.340;2023-05-10T01:52:42;1.60;;;1.50;;
38037;SDS011;23843;51.320;12.340;2023-05-10T01:55:14;1.30;;;1.20;;
38037;SDS011;23843;51.320;12.340;2023-05-10T01:57:44;1.80;;;1.50;;
38037;SDS011;23843;51.320;12.340;2023-05-10T02:00:13;3.07;;;1.70;;
38037;SDS011;23843;51.320;12.340;2023-05-10T02:02:44;1.40;;;1.20;;
38037;SDS011;23843;51.320;12.340;2023-05-10T02:05:11;1.37;;;1.23;;
38037;SDS011;23843;51.320;12.340;2023-05-10T02:07:38;1.10;;;0.93;;
38037;SDS011;23843;51.320;12.340;2023-05-10T02:10:05;1.80;;;1.10;;
38037;SDS011;23843;51.320;12.340;2023-05-10T02:12:33;1.70;;;1.60;;
38037;SDS011;23843;51.320;12.340;2023-05-10T02:15:04;1.13;;;1.03;;
38037;SDS011;23843;51.320;12.340;2023-05-10T02:17:32;1.30;;;1.20;;
38037;SDS011;23843;51.320;12.340;2023-05-10T02:19:59;1.60;;;1.27;;
38037;SDS011;23843;51.320;12.340;2023-05-10T02:22:26;1.50;;;1.07;;
38037;SDS011;23843;51.320;12.340;2023-05-10T02:24:53;1.20;;;1.10;;
38037;SDS011;23843;51.320;12.340;2023-05-10T02:27:19;1.30;;;1.20;;
38037;SDS011;23843;51.320;12.340;2023-05-10T02:29:48;3.23;;;2.00;;
38037;SDS011;23843;51.320;12.340;2023-05-10T02:32:14;2.23;;;1.60;;
38037;SDS011;23843;51.320;12.340;2023-05-10T02:34:41;1.50;;;1.37;;
38037;SDS011;23843;51.320;12.340;2023-05-10T02:37:10;2.10;;;1.90;;
38037;SDS011;23843;51.320;12.340;2023-05-10T02:39:37;2.13;;;1.93;;
38037;SDS011;23843;51.320;12.340;2023-05-10T02:42:03;2.10;;;1.80;;
38037;SDS011;23843;51.320;12.340;2023-05-10T02:44:30;2.60;;;2.20;;
38037;SDS011;23843;51.320;12.340;2023-05-10T02:46:58;1.90;;;1.70;;
38037;SDS011;23843;51.320;12.340;2023-05-10T02:49:24;2.00;;;1.80;;
38037;SDS011;23843;51.320;12.340;2023-05-10T02:51:50;2.60;;;1.30;;
38037;SDS011;23843;51.320;12.340;2023-05-10T02:54:23;1.97;;;1.60;;
38037;SDS011;23843;51.320;12.340;2023-05-10T02:56:56;1.67;;;1.27;;
38037;SDS011;23843;51.320;12.340;2023-05-10T02:59:23;1.73;;;1.57;;
38037;SDS011;23843;51.320;12.340;2023-05-10T03:01:48;1.87;;;1.67;;
38037;SDS011;23843;51.320;12.340;2023-05-10T03:04:14;1.57;;;1.47;;
38037;SDS011;23843;51.320;12.340;2023-05-10T03:06:41;3.70;;;1.90;;
38037;SDS011;23843;51.320;12.340;2023-05-10T03:09:07;2.73;;;1.43;;
38037;SDS011;23843;51.320;12.340;2023-05-10T03:11:39;1.40;;;1.10;;
38037;SDS011;23843;51.320;12.340;2023-05-10T03:14:16;1.57;;;1.30;;
38037;SDS011;23843;51.320;12.340;2023-05-10T03:16:56;1.70;;;1.40;;
38037;SDS011;23843;51.320;12.340;2023-05-10T03:19:26;1.83;;;1.50;;
38037;SDS011;23843;51.320;12.340;2023-05-10T03:21:55;3.17;;;1.53;;
38037;SDS011;23843;51.320;12.340;2023-05-10T03:24:24;1.87;;;1.70;;
38037;SDS011;23843;51.320;12.340;2023-05-10T03:26:54;1.90;;;1.70;;
38037;SDS011;23843;51.320;12.340;2023-05-10T03:29:24;2.30;;;2.10;;
38037;SDS011;23843;51.320;12.340;2023-05-10T03:31:51;2.40;;;2.20;;
38037;SDS011;23843;51.320;12.340;2023-05-10T03:34:16;2.70;;;2.50;;
38037;SDS011;23843;51.320;12.340;2023-05-10T03:36:42;3.13;;;2.40;;
38037;SDS011;23843;51.320;12.340;2023-05-10T03:39:07;2.67;;;2.20;;
38037;SDS011;23843;51.320;12.340;2023-05-10T03:41:33;2.30;;;1.90;;
38037;SDS011;23843;51.320;12.340;2023-05-10T03:44:02;2.17;;;1.90;;
38037;SDS011;23843;51.320;12.340;2023-05-10T03:46:28;2.00;;;1.80;;
38037;SDS011;23843;51.320;12.340;2023-05-10T03:48:54;3.27;;;2.23;;
38037;SDS011;23843;51.320;12.340;2023-05-10T03:51:19;2.90;;;2.40;;
38037;SDS011;23843;51.320;12.340;2023-05-10T03:53:44;3.27;;;2.43;;
38037;SDS011;23843;51.320;12.340;2023-05-10T03:56:10;2.57;;;2.23;;
38037;SDS011;23843;51.320;12.340;2023-05-10T03:58:35;2.47;;;2.23;;
38037;SDS011;23843;51.320;12.340;2023-05-10T04:01:02;2.30;;;2.00;;
38037;SDS011;23843;51.320;12.340;2023-05-10T04:03:28;3.27;;;1.60;;
38037;SDS011;23843;51.320;12.340;2023-05-10T04:05:58;2.00;;;1.80;;
38037;SDS011;23843;51.320;12.340;2023-05-10T04:08:24;2.50;;;1.90;;
38037;SDS011;23843;51.320;12.340;2023-05-10T04:10:52;3.23;;;2.10;;
38037;SDS011;23843;51.320;12.340;2023-05-10T04:13:18;2.23;;;1.70;;
38037;SDS011;23843;51.320;12.340;2023-05-10T04:15:43;2.23;;;1.83;;
38037;SDS011;23843;51.320;12.340;2023-05-10T04:18:13;2.80;;;1.73;;
38037;SDS011;23843;51.320;12.340;2023-05-10T04:20:40;2.23;;;1.90;;
38037;SDS011;23843;51.320;12.340;2023-05-10T04:23:06;2.10;;;1.90;;
38037;SDS011;23843;51.320;12.340;2023-05-10T04:25:33;2.63;;;1.97;;
38037;SDS011;23843;51.320;12.340;2023-05-10T04:27:59;2.97;;;2.40;;
38037;SDS011;23843;51.320;12.340;2023-05-10T04:30:24;2.60;;;1.97;;
38037;SDS011;23843;51.320;12.340;2023-05-10T04:32:50;3.00;;;2.00;;
38037;SDS011;23843;51.320;12.340;2023-05-10T04:35:17;1.90;;;1.63;;
38037;SDS011;23843;51.320;12.340;2023-05-10T04:37:42;2.30;;;1.60;;
38037;SDS011;23843;51.320;12.340;2023-05-10T04:40:08;1.70;;;1.60;;
38037;SDS011;23843;51.320;12.340;2023-05-10T04:42:34;1.80;;;1.70;;
38037;SDS011;23843;51.320;12.340;2023-05-10T04:45:00;2.87;;;1.60;;
38037;SDS011;23843;51.320;12.340;2023-05-10T04:47:25;2.88;;;1.70;;
38037;SDS011;23843;51.320;12.340;2023-05-10T04:49:50;2.03;;;1.83;;
38037;SDS011;23843;51.320;12.340;2023-05-10T04:52:17;1.60;;;1.50;;
38037;SDS011;23843;51.320;12.340;2023-05-10T04:54:43;1.70;;;1.60;;
38037;SDS011;23843;51.320;12.340;2023-05-10T04:57:08;2.67;;;2.00;;
38037;SDS011;23843;51.320;12.340;2023-05-10T04:59:35;2.00;;;1.83;;
38037;SDS011;23843;51.320;12.340;2023-05-10T05:02:00;2.70;;;1.80;;
38037;SDS011;23843;51.320;12.340;2023-05-10T05:04:26;3.60;;;2.20;;
38037;SDS011;23843;51.320;12.340;2023-05-10T05:06:51;2.13;;;1.92;;
38037;SDS011;23843;51.320;12.340;2023-05-10T05:09:18;1.65;;;1.55;;
38037;SDS011;23843;51.320;12.340;2023-05-10T05:11:43;4.05;;;1.77;;
38037;SDS011;23843;51.320;12.340;2023-05-10T05:14:09;2.42;;;2.00;;
38037;SDS011;23843;51.320;12.340;2023-05-10T05:16:34;2.10;;;1.73;;
38037;SDS011;23843;51.320;12.340;2023-05-10T05:19:00;3.45;;;2.20;;
38037;SDS011;23843;51.320;12.340;2023-05-10T05:21:25;2.38;;;2.15;;
38037;SDS011;23843;51.320;12.340;2023-05-10T05:23:51;3.72;;;2.13;;
38037;SDS011;23843;51.320;12.340;2023-05-10T05:26:18;3.03;;;2.10;;
38037;SDS011;23843;51.320;12.340;2023-05-10T05:28:43;2.85;;;2.40;;
38037;SDS011;23843;51.320;12.340;2023-05-10T05:31:09;2.72;;;2.03;;
38037;SDS011;23843;51.320;12.340;2023-05-10T05:33:34;2.10;;;1.90;;
38037;SDS011;23843;51.320;12.340;2023-05-10T05:36:00;3.10;;;2.20;;
38037;SDS011;23843;51.320;12.340;2023-05-10T05:38:26;4.15;;;2.70;;
38037;SDS011;23843;51.320;12.340;2023-05-10T05:40:51;3.10;;;2.17;;
38037;SDS011;23843;51.320;12.340;2023-05-10T05:43:18;2.45;;;1.85;;
38037;SDS011;23843;51.320;12.340;2023-05-10T05:45:43;2.42;;;2.05;;
38037;SDS011;23843;51.320;12.340;2023-05-10T05:48:09;1.77;;;1.67;;
38037;SDS011;23843;51.320;12.340;2023-05-10T05:50:34;2.10;;;1.88;;
38037;SDS011;23843;51.320;12.340;2023-05-10T05:53:00;2.25;;;1.80;;
38037;SDS011;23843;51.320;12.340;2023-05-10T05:55:25;4.13;;;2.10;;
38037;SDS011;23843;51.320;12.340;2023-05-10T05:57:51;2.30;;;2.10;;
38037;SDS011;23843;51.320;12.340;2023-05-10T06:00:18;1.95;;;1.77;;
38037;SDS011;23843;51.320;12.340;2023-05-10T06:02:43;4.00;;;2.30;;
38037;SDS011;23843;51.320;12.340;2023-05-10T06:05:09;2.47;;;2.28;;
38037;SDS011;23843;51.320;12.340;2023-05-10T06:07:34;2.20;;;1.98;;
38037;SDS011;23843;51.320;12.340;2023-05-10T06:09:59;2.60;;;1.90;;
38037;SDS011;23843;51.320;12.340;2023-05-10T06:12:25;3.58;;;2.45;;
38037;SDS011;23843;51.320;12.340;2023-05-10T06:14:51;4.82;;;2.85;;
38037;SDS011;23843;51.320;12.340;2023-05-10T06:17:17;2.92;;;2.63;;
38037;SDS011;23843;51.320;12.340;2023-05-10T06:19:43;6.10;;;2.38;;
38037;SDS011;23843;51.320;12.340;2023-05-10T06:22:08;2.70;;;2.30;;
38037;SDS011;23843;51.320;12.340;2023-05-10T06:24:34;2.50;;;2.25;;
38037;SDS011;23843;51.320;12.340;2023-05-10T06:26:59;2.72;;;2.42;;
38037;SDS011;23843;51.320;12.340;2023-05-10T06:29:25;2.85;;;2.00;;
38037;SDS011;23843;51.320;12.340;2023-05-10T06:31:50;2.22;;;2.00;;
38037;SDS011;23843;51.320;12.340;2023-05-10T06:34:17;2.72;;;2.00;;
38037;SDS011;23843;51.320;12.340;2023-05-10T06:36:43;2.10;;;1.90;;
38037;SDS011;23843;51.320;12.340;2023-05-10T06:39:08;4.15;;;2.40;;
38037;SDS011;23843;51.320;12.340;2023-05-10T06:41:34;2.50;;;2.30;;
38037;SDS011;23843;51.320;12.340;2023-05-10T06:43:59;3.35;;;1.80;;
38037;SDS011;23843;51.320;12.340;2023-05-10T06:46:25;2.20;;;2.00;;
38037;SDS011;23843;51.320;12.340;2023-05-10T06:48:50;2.47;;;1.70;;
38037;SDS011;23843;51.320;12.340;2023-05-10T06:51:17;1.90;;;1.70;;
38037;SDS011;23843;51.320;12.340;2023-05-10T06:53:42;2.47;;;2.25;;
38037;SDS011;23843;51.320;12.340;2023-05-10T06:56:08;2.33;;;2.13;;
38037;SDS011;23843;51.320;12.340;2023-05-10T06:58:33;1.73;;;1.63;;
38037;SDS011;23843;51.320;12.340;2023-05-10T07:01:02;1.80;;;1.70;;
38037;SDS011;23843;51.320;12.340;2023-05-10T07:03:28;2.28;;;1.85;;
38037;SDS011;23843;51.320;12.340;2023-05-10T07:05:53;1.77;;;1.67;;
38037;SDS011;23843;51.320;12.340;2023-05-10T07:08:20;2.03;;;1.70;;
38037;SDS011;23843;51.320;12.340;2023-05-10T07:10:45;1.70;;;1.60;;
38037;SDS011;23843;51.320;12.340;2023-05-10T07:13:11;2.80;;;1.80;;
38037;SDS011;23843;51.320;12.340;2023-05-10T07:15:36;1.90;;;1.70;;
38037;SDS011;23843;51.320;12.340;2023-05-10T07:18:02;1.50;;;1.40;;
38037;SDS011;23843;51.320;12.340;2023-05-10T07:20:27;3.30;;;2.53;;
38037;SDS011;23843;51.320;12.340;2023-05-10T07:22:53;2.35;;;2.08;;
38037;SDS011;23843;51.320;12.340;2023-05-10T07:25:19;2.10;;;1.90;;
38037;SDS011;23843;51.320;12.340;2023-05-10T07:27:45;1.88;;;1.67;;
38037;SDS011;23843;51.320;12.340;2023-05-10T07:30:11;2.97;;;2.00;;
38037;SDS011;23843;51.320;12.340;2023-05-10T07:32:37;2.47;;;2.28;;
38037;SDS011;23843;51.320;12.340;2023-05-10T07:35:03;1.80;;;1.70;;
38037;SDS011;23843;51.320;12.340;2023-05-10T07:37:29;1.98;;;1.77;;
38037;SDS011;23843;51.320;12.340;2023-05-10T07:39:54;1.80;;;1.70;;
38037;SDS011;23843;51.320;12.340;2023-05-10T07:42:21;2.83;;;1.60;;
38037;SDS011;23843;51.320;12.340;2023-05-10T07:44:46;1.60;;;1.50;;
38037;SDS011;23843;51.320;12.340;2023-05-10T07:47:12;1.60;;;1.50;;
38037;SDS011;23843;51.320;12.340;2023-05-10T07:49:37;1.65;;;1.50;;
38037;SDS011;23843;51.320;12.340;2023-05-10T07:52:03;1.80;;;1.70;;
38037;SDS011;23843;51.320;12.340;2023-05-10T07:54:28;2.45;;;1.48;;
38037;SDS011;23843;51.320;12.340;2023-05-10T07:56:54;2.25;;;1.70;;
38037;SDS011;23843;51.320;12.340;2023-05-10T07:59:21;2.92;;;2.42;;
38037;SDS011;23843;51.320;12.340;2023-05-10T08:01:46;2.50;;;2.30;;
38037;SDS011;23843;51.320;12.340;2023-05-10T08:04:12;1.70;;;1.60;;
38037;SDS011;23843;51.320;12.340;2023-05-10T08:06:37;2.15;;;1.67;;
38037;SDS011;23843;51.320;12.340;2023-05-10T08:09:03;3.65;;;2.10;;
38037;SDS011;23843;51.320;12.340;2023-05-10T08:11:28;1.50;;;1.40;;
38037;SDS011;23843;51.320;12.340;2023-05-10T08:13:54;2.20;;;1.92;;
38037;SDS011;23843;51.320;12.340;2023-05-10T08:16:21;2.22;;;1.90;;
38037;SDS011;23843;51.320;12.340;2023-05-10T08:18:46;2.45;;;1.80;;
38037;SDS011;23843;51.320;12.340;2023-05-10T08:21:12;2.97;;;1.90;;
38037;SDS011;23843;51.320;12.340;2023-05-10T08:23:38;2.80;;;2.00;;
38037;SDS011;23843;51.320;12.340;2023-05-10T08:26:03;2.35;;;1.90;;
38037;SDS011;23843;51.320;12.340;2023-05-10T08:28:28;2.38;;;2.08;;
38037;SDS011;23843;51.320;12.340;2023-05-10T08:30:54;1.80;;;1.70;;
38037;SDS011;23843;51.320;12.340;2023-05-10T08:33:21;1.60;;;1.50;;
38037;SDS011;23843;51.320;12.340;2023-05-10T08:35:46;1.58;;;1.48;;
38037;SDS011;23843;51.320;12.340;2023-05-10T08:38:12;1.38;;;1.27;;
38037;SDS011;23843;51.320;12.340;2023-05-10T08:40:37;1.75;;;1.55;;
38037;SDS011;23843;51.320;12.340;2023-05-10T08:43:05;2.60;;;2.05;;
38037;SDS011;23843;51.320;12.340;2023-05-10T08:45:32;2.38;;;2.00;;
38037;SDS011;23843;51.320;12.340;2023-05-10T08:47:58;1.75;;;1.65;;
38037;SDS011;23843;51.320;12.340;2023-05-10T08:50:27;1.95;;;1.52;;
38037;SDS011;23843;51.320;12.340;2023-05-10T08:52:55;1.75;;;1.40;;
38037;SDS011;23843;51.320;12.340;2023-05-10T08:55:24;2.05;;;1.90;;
38037;SDS011;23843;51.320;12.340;2023-05-10T08:57:49;2.08;;;1.88;;
38037;SDS011;23843;51.320;12.340;2023-05-10T09:00:15;1.83;;;1.67;;
38037;SDS011;23843;51.320;12.340;2023-05-10T09:02:42;2.55;;;2.25;;
38037;SDS011;23843;51.320;12.340;2023-05-10T09:05:08;2.97;;;2.25;;
38037;SDS011;23843;51.320;12.340;2023-05-10T09:07:35;3.25;;;2.78;;
38037;SDS011;23843;51.320;12.340;2023-05-10T09:10:01;3.13;;;2.67;;
38037;SDS011;23843;51.320;12.340;2023-05-10T09:12:27;2.88;;;2.50;;
38037;SDS011;23843;51.320;12.340;2023-05-10T09:14:53;3.58;;;2.50;;
38037;SDS011;23843;51.320;12.340;2023-05-10T09:17:20;2.40;;;2.20;;
38037;SDS011;23843;51.320;12.340;2023-05-10T09:19:48;2.50;;;2.30;;
38037;SDS011;23843;51.320;12.340;2023-05-10T09:22:13;2.10;;;1.90;;
38037;SDS011;23843;51.320;12.340;2023-05-10T09:24:40;3.05;;;2.58;;
38037;SDS011;23843;51.320;12.340;2023-05-10T09:27:07;3.90;;;3.00;;
38037;SDS011;23843;51.320;12.340;2023-05-10T09:29:38;2.70;;;2.50;;
38037;SDS011;23843;51.320;12.340;2023-05-10T09:32:04;3.13;;;2.50;;
38037;SDS011;23843;51.320;12.340;2023-05-10T09:34:30;2.97;;;2.47;;
38037;SDS011;23843;51.320;12.340;2023-05-10T09:36:57;2.40;;;2.20;;
38037;SDS011;23843;51.320;12.340;2023-05-10T09:39:30;3.93;;;2.90;;
38037;SDS011;23843;51.320;12.340;2023-05-10T09:41:58;3.37;;;2.40;;
38037;SDS011;23843;51.320;12.340;2023-05-10T09:44:25;3.33;;;2.97;;
38037;SDS011;23843;51.320;12.340;2023-05-10T09:46:50;4.53;;;2.77;;
38037;SDS011;23843;51.320;12.340;2023-05-10T09:49:18;3.73;;;3.03;;
38037;SDS011;23843;51.320;12.340;2023-05-10T09:51:43;4.37;;;3.43;;
38037;SDS011;23843;51.320;12.340;2023-05-10T09:54:09;3.20;;;2.90;;
38037;SDS011;23843;51.320;12.340;2023-05-10T09:56:35;3.60;;;2.90;;
38037;SDS011;23843;51.320;12.340;2023-05-10T09:59:03;2.30;;;2.03;;
38037;SDS011;23843;51.320;12.340;2023-05-10T10:01:29;2.40;;;1.90;;
38037;SDS011;23843;51.320;12.340;2023-05-10T10:03:55;2.27;;;2.00;;
38037;SDS011;23843;51.320;12.340;2023-05-10T10:06:20;3.00;;;2.70;;
38037;SDS011;23843;51.320;12.340;2023-05-10T10:08:46;2.97;;;2.77;;
38037;SDS011;23843;51.320;12.340;2023-05-10T10:11:11;1.83;;;1.70;;
38037;SDS011;23843;51.320;12.340;2023-05-10T10:13:37;2.97;;;2.67;;
38037;SDS011;23843;51.320;12.340;2023-05-10T10:16:04;2.70;;;2.30;;
38037;SDS011;23843;51.320;12.340;2023-05-10T10:18:30;3.03;;;2.83;;
38037;SDS011;23843;51.320;12.340;2023-05-10T10:20:56;3.93;;;2.50;;
38037;SDS011;23843;51.320;12.340;2023-05-10T10:23:21;2.67;;;2.20;;
38037;SDS011;23843;51.320;12.340;2023-05-10T10:25:47;2.00;;;1.80;;
38037;SDS011;23843;51.320;12.340;2023-05-10T10:28:16;2.63;;;2.23;;
38037;SDS011;23843;51.320;12.340;2023-05-10T10:30:49;3.20;;;2.87;;
38037;SDS011;23843;51.320;12.340;2023-05-10T10:33:24;2.63;;;2.23;;
38037;SDS011;23843;51.320;12.340;2023-05-10T10:36:09;2.50;;;2.30;;
38037;SDS011;23843;51.320;12.340;2023-05-10T10:41:27;3.83;;;2.63;;
38037;SDS011;23843;51.320;12.340;2023-05-10T10:47:03;2.63;;;2.43;;
38037;SDS011;23843;51.320;12.340;2023-05-10T10:49:32;2.63;;;2.43;;
38037;SDS011;23843;51.320;12.340;2023-05-10T10:52:13;2.00;;;1.60;;
38037;SDS011;23843;51.320;12.340;2023-05-10T10:54:40;1.50;;;1.40;;
38037;SDS011;23843;51.320;12.340;2023-05-10T10:57:11;1.27;;;1.17;;
38037;SDS011;23843;51.320;12.340;2023-05-10T10:59:40;1.83;;;1.50;;
38037;SDS011;23843;51.320;12.340;2023-05-10T11:02:06;1.60;;;1.50;;
38037;SDS011;23843;51.320;12.340;2023-05-10T11:04:38;1.77;;;1.67;;
38037;SDS011;23843;51.320;12.340;2023-05-10T11:07:16;1.53;;;1.30;;
38037;SDS011;23843;51.320;12.340;2023-05-10T11:09:41;1.97;;;1.77;;
38037;SDS011;23843;51.320;12.340;2023-05-10T11:12:08;2.57;;;2.17;;
38037;SDS011;23843;51.320;12.340;2023-05-10T11:14:34;1.83;;;1.70;;
38037;SDS011;23843;51.320;12.340;2023-05-10T11:16:59;2.00;;;1.90;;
38037;SDS011;23843;51.320;12.340;2023-05-10T11:19:27;1.80;;;1.70;;
38037;SDS011;23843;51.320;12.340;2023-05-10T11:22:13;1.60;;;1.50;;
38037;SDS011;23843;51.320;12.340;2023-05-10T11:24:38;1.83;;;1.40;;
38037;SDS011;23843;51.320;12.340;2023-05-10T11:27:04;2.93;;;1.93;;
38037;SDS011;23843;51.320;12.340;2023-05-10T11:29:30;2.77;;;2.50;;
38037;SDS011;23843;51.320;12.340;2023-05-10T11:31:56;2.63;;;2.00;;
38037;SDS011;23843;51.320;12.340;2023-05-10T11:34:23;2.65;;;2.45;;
38037;SDS011;23843;51.320;12.340;2023-05-10T11:36:50;2.80;;;2.50;;
38037;SDS011;23843;51.320;12.340;2023-05-10T11:39:18;2.83;;;2.20;;
38037;SDS011;23843;51.320;12.340;2023-05-10T11:41:44;3.83;;;2.17;;
38037;SDS011;23843;51.320;12.340;2023-05-10T11:44:13;2.30;;;2.10;;
38037;SDS011;23843;51.320;12.340;2023-05-10T11:46:38;2.35;;;2.15;;
38037;SDS011;23843;51.320;12.340;2023-05-10T11:49:04;3.80;;;2.60;;
38037;SDS011;23843;51.320;12.340;2023-05-10T11:51:33;2.72;;;2.40;;
38037;SDS011;23843;51.320;12.340;2023-05-10T11:53:59;3.00;;;2.22;;
38037;SDS011;23843;51.320;12.340;2023-05-10T11:56:26;4.07;;;3.40;;
38037;SDS011;23843;51.320;12.340;2023-05-10T11:58:52;2.30;;;2.10;;
38037;SDS011;23843;51.320;12.340;2023-05-10T12:01:19;2.65;;;2.45;;
38037;SDS011;23843;51.320;12.340;2023-05-10T12:03:45;2.90;;;2.30;;
38037;SDS011;23843;51.320;12.340;2023-05-10T12:06:11;3.10;;;2.30;;
38037;SDS011;23843;51.320;12.340;2023-05-10T12:08:43;2.17;;;1.98;;
38037;SDS011;23843;51.320;12.340;2023-05-10T12:11:10;2.63;;;1.90;;
38037;SDS011;23843;51.320;12.340;2023-05-10T12:13:38;4.18;;;3.38;;
38037;SDS011;23843;51.320;12.340;2023-05-10T12:16:12;2.58;;;2.38;;
38037;SDS011;23843;51.320;12.340;2023-05-10T12:18:38;2.28;;;2.08;;
38037;SDS011;23843;51.320;12.340;2023-05-10T12:21:05;2.33;;;2.13;;
38037;SDS011;23843;51.320;12.340;2023-05-10T12:23:32;3.60;;;3.30;;
38037;SDS011;23843;51.320;12.340;2023-05-10T12:26:01;2.85;;;2.55;;
38037;SDS011;23843;51.320;12.340;2023-05-10T12:28:29;4.40;;;3.17;;
38037;SDS011;23843;51.320;12.340;2023-05-10T12:30:56;3.28;;;2.28;;
38037;SDS011;23843;51.320;12.340;2023-05-10T12:33:22;2.25;;;1.98;;
38037;SDS011;23843;51.320;12.340;2023-05-10T12:35:48;3.70;;;3.30;;
38037;SDS011;23843;51.320;12.340;2023-05-10T12:38:24;5.43;;;3.65;;
38037;SDS011;23843;51.320;12.340;2023-05-10T12:40:53;3.20;;;2.90;;
38037;SDS011;23843;51.320;12.340;2023-05-10T12:43:19;4.40;;;3.10;;
38037;SDS011;23843;51.320;12.340;2023-05-10T12:45:44;5.70;;;3.30;;
38037;SDS011;23843;51.320;12.340;2023-05-10T12:48:11;2.45;;;2.25;;
38037;SDS011;23843;51.320;12.340;2023-05-10T12:50:37;2.88;;;2.58;;
38037;SDS011;23843;51.320;12.340;2023-05-10T12:53:02;3.83;;;2.95;;
38037;SDS011;23843;51.320;12.340;2023-05-10T12:55:27;2.78;;;2.28;;
38037;SDS011;23843;51.320;12.340;2023-05-10T12:57:53;2.33;;;2.13;;
38037;SDS011;23843;51.320;12.340;2023-05-10T13:00:18;2.67;;;2.10;;
38037;SDS011;23843;51.320;12.340;2023-05-10T13:02:44;2.90;;;2.17;;
38037;SDS011;23843;51.320;12.340;2023-05-10T13:05:11;2.95;;;2.55;;
38037;SDS011;23843;51.320;12.340;2023-05-10T13:07:37;2.67;;;2.13;;
38037;SDS011;23843;51.320;12.340;2023-05-10T13:10:02;1.85;;;1.60;;
38037;SDS011;23843;51.320;12.340;2023-05-10T13:12:28;2.00;;;1.90;;
38037;SDS011;23843;51.320;12.340;2023-05-10T13:14:54;1.65;;;1.55;;
38037;SDS011;23843;51.320;12.340;2023-05-10T13:17:19;2.30;;;2.10;;
38037;SDS011;23843;51.320;12.340;2023-05-10T13:19:44;2.20;;;2.00;;
38037;SDS011;23843;51.320;12.340;2023-05-10T13:22:11;2.53;;;2.00;;
38037;SDS011;23843;51.320;12.340;2023-05-10T13:24:37;2.22;;;2.03;;
38037;SDS011;23843;51.320;12.340;2023-05-10T13:27:02;2.45;;;2.22;;
38037;SDS011;23843;51.320;12.340;2023-05-10T13:29:28;2.97;;;2.78;;
38037;SDS011;23843;51.320;12.340;2023-05-10T13:31:53;2.35;;;2.15;;
38037;SDS011;23843;51.320;12.340;2023-05-10T13:34:19;2.22;;;1.88;;
38037;SDS011;23843;51.320;12.340;2023-05-10T13:36:44;1.90;;;1.77;;
38037;SDS011;23843;51.320;12.340;2023-05-10T13:39:11;1.90;;;1.73;;
38037;SDS011;23843;51.320;12.340;2023-05-10T13:41:37;1.40;;;1.30;;
38037;SDS011;23843;51.320;12.340;2023-05-10T13:44:02;1.50;;;1.40;;
38037;SDS011;23843;51.320;12.340;2023-05-10T13:46:28;1.30;;;1.20;;
38037;SDS011;23843;51.320;12.340;2023-05-10T13:48:54;0.90;;;0.90;;
38037;SDS011;23843;51.320;12.340;2023-05-10T13:51:19;0.82;;;0.82;;
38037;SDS011;23843;51.320;12.340;2023-05-10T13:53:45;1.00;;;0.90;;
38037;SDS011;23843;51.320;12.340;2023-05-10T13:56:12;1.40;;;1.30;;
38037;SDS011;23843;51.320;12.340;2023-05-10T13:58:37;1.80;;;1.70;;
38037;SDS011;23843;51.320;12.340;2023-05-10T14:01:03;1.30;;;1.10;;
38037;SDS011;23843;51.320;12.340;2023-05-10T14:03:28;1.00;;;0.90;;
38037;SDS011;23843;51.320;12.340;2023-05-10T14:05:54;0.82;;;0.82;;
38037;SDS011;23843;51.320;12.340;2023-05-10T14:08:19;0.85;;;0.85;;
38037;SDS011;23843;51.320;12.340;2023-05-10T14:10:45;0.80;;;0.80;;
38037;SDS011;23843;51.320;12.340;2023-05-10T14:13:12;0.65;;;0.65;;
38037;SDS011;23843;51.320;12.340;2023-05-10T14:15:37;0.60;;;0.60;;
38037;SDS011;23843;51.320;12.340;2023-05-10T14:18:03;0.70;;;0.70;;
38037;SDS011;23843;51.320;12.340;2023-05-10T14:20:28;0.50;;;0.50;;
38037;SDS011;23843;51.320;12.340;2023-05-10T14:22:54;0.50;;;0.50;;
38037;SDS011;23843;51.320;12.340;2023-05-10T14:25:19;0.82;;;0.65;;
38037;SDS011;23843;51.320;12.340;2023-05-10T14:27:45;0.82;;;0.82;;
38037;SDS011;23843;51.320;12.340;2023-05-10T14:30:13;0.63;;;0.63;;
38037;SDS011;23843;51.320;12.340;2023-05-10T14:32:39;0.90;;;0.90;;
38037;SDS011;23843;51.320;12.340;2023-05-10T14:35:05;0.50;;;0.50;;
38037;SDS011;23843;51.320;12.340;2023-05-10T14:37:31;0.40;;;0.40;;
38037;SDS011;23843;51.320;12.340;2023-05-10T14:39:56;0.57;;;0.40;;
38037;SDS011;23843;51.320;12.340;2023-05-10T14:42:22;0.30;;;0.30;;
38037;SDS011;23843;51.320;12.340;2023-05-10T14:44:47;0.40;;;0.40;;
38037;SDS011;23843;51.320;12.340;2023-05-10T14:47:14;0.60;;;0.60;;